logo
Rechercher aéroport 
image banner adimage banner adimage banner ad
image banner ad

KBFL - Meadows Field

Situé à Bakersfield, United States

ICAO - BFL, IATA - BFL

Données fournies par Airmate  

Information générale

Coordonnées: N35°26'2" W119°3'28"
Élévation : 509 feet MSL.
Variation magnétique : 14° East
Voir autres Aéroports à California

Données opérationnelles

Special qualification required
Heure actuelle UTC:
Heure actuelle locale:
Météo
METAR: KBFL 281154Z AUTO 36003KT 8SM CLR 21/12 A2995 RMK AO2 SLP134 T02060122 10283 20206 53005 TSNO
TAF: KBFL 281120Z 2812/2912 32004KT P6SM SKC
Voir NOTAMs / SUP AIP / TFR affectant cet aéroport [VIEW]
Fréquences de communication: [VIEW]

Pistes:

Identifiant RWYQFULongueur (ft)Largeur (ft)SurfaceLDA (ft)
12R135°7700100ASPH7703
30L315°7700100ASPH6203
12L135°10849150ASPH10855
30R315°10849150ASPH7429

Coordonnées de l'aéroport

Adresse: Bakersfield United States

Autres services d'aviation

Écoles de pilotage

Srt Helicopters

Srt Helicopters

Excell Aviation, Inc.

Excell Aviation, Inc.

Bakersfield Flying Club, Inc.

Bakersfield Flying Club, Inc.

Vue satellite de KBFL